Array
(
    [0] => p
    [1] => METAR
)
- বাংলা English

** MONSOON IS LESS ACTIVE OVER BANGLADESH AND MODERATE OVER NORTH BAY **

METAR

VGHS 191500Z 23004KT 4000 HZ FEW015 SCT100 33/27 Q0997 NOSIG=